sensor_id;sensor_type;location;lat;lon;timestamp;pressure;altitude;pressure_sealevel;temperature;humidity
59435;BME280;45241;49.768;8.636;2023-05-10T00:00:26;99532.41;;;15.07;100.00
59435;BME280;45241;49.768;8.636;2023-05-10T00:02:51;99545.41;;;15.10;100.00
59435;BME280;45241;49.768;8.636;2023-05-10T00:05:17;99541.97;;;15.26;100.00
59435;BME280;45241;49.768;8.636;2023-05-10T00:07:42;99542.09;;;15.32;100.00
59435;BME280;45241;49.768;8.636;2023-05-10T00:10:10;99541.03;;;15.33;100.00
59435;BME280;45241;49.768;8.636;2023-05-10T00:12:35;99546.44;;;15.21;100.00
59435;BME280;45241;49.768;8.636;2023-05-10T00:15:01;99543.78;;;15.09;100.00
59435;BME280;45241;49.768;8.636;2023-05-10T00:17:26;99542.75;;;15.39;100.00
59435;BME280;45241;49.768;8.636;2023-05-10T00:19:51;99538.19;;;15.27;100.00
59435;BME280;45241;49.768;8.636;2023-05-10T00:22:17;99542.91;;;15.32;100.00
59435;BME280;45241;49.768;8.636;2023-05-10T00:24:42;99545.97;;;15.12;100.00
59435;BME280;45241;49.768;8.636;2023-05-10T00:27:07;99548.84;;;15.06;100.00
59435;BME280;45241;49.768;8.636;2023-05-10T00:29:32;99545.75;;;15.02;100.00
59435;BME280;45241;49.768;8.636;2023-05-10T00:31:58;99554.88;;;15.24;100.00
59435;BME280;45241;49.768;8.636;2023-05-10T00:34:24;99551.03;;;15.20;100.00
59435;BME280;45241;49.768;8.636;2023-05-10T00:36:49;99551.38;;;15.12;100.00
59435;BME280;45241;49.768;8.636;2023-05-10T00:39:15;99548.34;;;14.97;100.00
59435;BME280;45241;49.768;8.636;2023-05-10T00:41:40;99554.22;;;15.06;100.00
59435;BME280;45241;49.768;8.636;2023-05-10T00:44:05;99552.91;;;15.20;100.00
59435;BME280;45241;49.768;8.636;2023-05-10T00:46:31;99548.91;;;15.22;100.00
59435;BME280;45241;49.768;8.636;2023-05-10T00:48:57;99551.84;;;15.21;100.00
59435;BME280;45241;49.768;8.636;2023-05-10T00:51:22;99555.47;;;15.26;100.00
59435;BME280;45241;49.768;8.636;2023-05-10T00:53:48;99554.06;;;15.24;100.00
59435;BME280;45241;49.768;8.636;2023-05-10T00:56:15;99557.97;;;15.16;100.00
59435;BME280;45241;49.768;8.636;2023-05-10T00:58:41;99558.44;;;15.02;100.00
59435;BME280;45241;49.768;8.636;2023-05-10T01:01:07;99558.81;;;15.05;100.00
59435;BME280;45241;49.768;8.636;2023-05-10T01:03:33;99559.47;;;15.12;100.00
59435;BME280;45241;49.768;8.636;2023-05-10T01:05:58;99549.88;;;15.16;100.00
59435;BME280;45241;49.768;8.636;2023-05-10T01:08:24;99558.31;;;15.08;100.00
59435;BME280;45241;49.768;8.636;2023-05-10T01:10:50;99554.69;;;15.03;100.00
59435;BME280;45241;49.768;8.636;2023-05-10T01:13:27;99553.25;;;15.23;100.00
59435;BME280;45241;49.768;8.636;2023-05-10T01:15:56;99554.91;;;15.01;100.00
59435;BME280;45241;49.768;8.636;2023-05-10T01:18:21;99547.31;;;14.86;100.00
59435;BME280;45241;49.768;8.636;2023-05-10T01:20:48;99561.25;;;15.07;100.00
59435;BME280;45241;49.768;8.636;2023-05-10T01:23:31;99555.72;;;15.13;100.00
59435;BME280;45241;49.768;8.636;2023-05-10T01:39:12;99558.69;;;14.88;100.00
59435;BME280;45241;49.768;8.636;2023-05-10T01:42:17;99561.28;;;14.95;100.00
59435;BME280;45241;49.768;8.636;2023-05-10T01:45:00;99565.03;;;14.82;100.00
59435;BME280;45241;49.768;8.636;2023-05-10T01:47:43;99576.16;;;14.74;100.00
59435;BME280;45241;49.768;8.636;2023-05-10T01:50:18;99566.53;;;14.90;100.00
59435;BME280;45241;49.768;8.636;2023-05-10T01:52:49;99567.72;;;14.82;100.00
59435;BME280;45241;49.768;8.636;2023-05-10T01:55:16;99569.47;;;14.88;100.00
59435;BME280;45241;49.768;8.636;2023-05-10T01:57:44;99572.56;;;14.92;100.00
59435;BME280;45241;49.768;8.636;2023-05-10T02:00:13;99566.44;;;14.85;100.00
59435;BME280;45241;49.768;8.636;2023-05-10T02:02:42;99569.59;;;14.93;100.00
59435;BME280;45241;49.768;8.636;2023-05-10T02:05:12;99574.06;;;14.88;100.00
59435;BME280;45241;49.768;8.636;2023-05-10T02:07:38;99577.13;;;14.80;100.00
59435;BME280;45241;49.768;8.636;2023-05-10T02:10:05;99582.97;;;14.77;100.00
59435;BME280;45241;49.768;8.636;2023-05-10T02:12:51;99593.75;;;14.77;100.00
59435;BME280;45241;49.768;8.636;2023-05-10T02:15:23;99587.09;;;14.91;100.00
59435;BME280;45241;49.768;8.636;2023-05-10T02:17:50;99590.03;;;14.78;100.00
59435;BME280;45241;49.768;8.636;2023-05-10T02:20:16;99585.91;;;14.98;100.00
59435;BME280;45241;49.768;8.636;2023-05-10T02:22:44;99587.69;;;14.93;100.00
59435;BME280;45241;49.768;8.636;2023-05-10T02:25:12;99578.19;;;14.90;100.00
59435;BME280;45241;49.768;8.636;2023-05-10T02:27:40;99580.50;;;14.87;100.00
59435;BME280;45241;49.768;8.636;2023-05-10T02:30:08;99590.47;;;14.86;100.00
59435;BME280;45241;49.768;8.636;2023-05-10T02:32:35;99598.34;;;14.76;100.00
59435;BME280;45241;49.768;8.636;2023-05-10T02:35:02;99588.75;;;14.80;100.00
59435;BME280;45241;49.768;8.636;2023-05-10T02:37:29;99590.38;;;14.81;100.00
59435;BME280;45241;49.768;8.636;2023-05-10T02:39:55;99594.47;;;14.84;100.00
59435;BME280;45241;49.768;8.636;2023-05-10T02:42:26;99597.59;;;14.46;100.00
59435;BME280;45241;49.768;8.636;2023-05-10T02:44:54;99596.34;;;14.72;100.00
59435;BME280;45241;49.768;8.636;2023-05-10T02:47:21;99581.81;;;14.84;100.00
59435;BME280;45241;49.768;8.636;2023-05-10T02:49:47;99586.72;;;14.76;100.00
59435;BME280;45241;49.768;8.636;2023-05-10T02:52:16;99586.59;;;14.47;100.00
59435;BME280;45241;49.768;8.636;2023-05-10T02:54:45;99592.44;;;14.44;100.00
59435;BME280;45241;49.768;8.636;2023-05-10T02:57:33;99591.88;;;14.54;100.00
59435;BME280;45241;49.768;8.636;2023-05-10T02:59:59;99581.78;;;14.49;100.00
59435;BME280;45241;49.768;8.636;2023-05-10T03:02:25;99592.44;;;14.44;100.00
59435;BME280;45241;49.768;8.636;2023-05-10T03:04:51;99587.78;;;14.63;100.00
59435;BME280;45241;49.768;8.636;2023-05-10T03:07:16;99591.78;;;14.72;100.00
59435;BME280;45241;49.768;8.636;2023-05-10T03:09:44;99583.69;;;14.84;100.00
59435;BME280;45241;49.768;8.636;2023-05-10T03:12:23;99583.56;;;14.79;100.00
59435;BME280;45241;49.768;8.636;2023-05-10T03:17:56;99589.66;;;14.86;100.00
59435;BME280;45241;49.768;8.636;2023-05-10T03:20:27;99598.13;;;14.66;100.00
59435;BME280;45241;49.768;8.636;2023-05-10T03:23:07;99604.69;;;14.70;100.00
59435;BME280;45241;49.768;8.636;2023-05-10T03:25:33;99604.34;;;14.66;100.00
59435;BME280;45241;49.768;8.636;2023-05-10T03:28:01;99609.16;;;14.64;100.00
59435;BME280;45241;49.768;8.636;2023-05-10T03:30:27;99605.84;;;14.74;100.00
59435;BME280;45241;49.768;8.636;2023-05-10T03:32:53;99613.53;;;14.35;100.00
59435;BME280;45241;49.768;8.636;2023-05-10T03:35:19;99621.44;;;14.60;100.00
59435;BME280;45241;49.768;8.636;2023-05-10T03:37:44;99614.97;;;14.61;100.00
59435;BME280;45241;49.768;8.636;2023-05-10T03:40:10;99612.84;;;14.40;100.00
59435;BME280;45241;49.768;8.636;2023-05-10T03:42:35;99603.34;;;14.49;100.00
59435;BME280;45241;49.768;8.636;2023-05-10T03:45:01;99606.31;;;14.59;100.00
59435;BME280;45241;49.768;8.636;2023-05-10T03:47:26;99605.03;;;14.74;100.00
59435;BME280;45241;49.768;8.636;2023-05-10T03:49:51;99595.50;;;14.59;100.00
59435;BME280;45241;49.768;8.636;2023-05-10T03:52:17;99603.38;;;14.73;100.00
59435;BME280;45241;49.768;8.636;2023-05-10T03:54:43;99604.91;;;14.57;100.00
59435;BME280;45241;49.768;8.636;2023-05-10T03:57:08;99601.72;;;14.60;100.00
59435;BME280;45241;49.768;8.636;2023-05-10T03:59:34;99609.13;;;14.53;100.00
59435;BME280;45241;49.768;8.636;2023-05-10T04:02:00;99603.50;;;14.66;100.00
59435;BME280;45241;49.768;8.636;2023-05-10T04:04:25;99597.75;;;14.62;100.00
59435;BME280;45241;49.768;8.636;2023-05-10T04:06:50;99606.88;;;14.61;100.00
59435;BME280;45241;49.768;8.636;2023-05-10T04:09:16;99601.97;;;14.58;100.00
59435;BME280;45241;49.768;8.636;2023-05-10T04:11:42;99603.63;;;14.71;100.00
59435;BME280;45241;49.768;8.636;2023-05-10T04:14:08;99597.91;;;14.91;100.00
59435;BME280;45241;49.768;8.636;2023-05-10T04:16:33;99607.16;;;14.83;100.00
59435;BME280;45241;49.768;8.636;2023-05-10T04:18:58;99604.56;;;14.88;100.00
59435;BME280;45241;49.768;8.636;2023-05-10T04:21:24;99607.03;;;14.90;100.00
59435;BME280;45241;49.768;8.636;2023-05-10T04:23:50;99612.22;;;14.91;100.00
59435;BME280;45241;49.768;8.636;2023-05-10T04:26:15;99618.44;;;14.92;100.00
59435;BME280;45241;49.768;8.636;2023-05-10T04:28:41;99619.00;;;14.82;100.00
59435;BME280;45241;49.768;8.636;2023-05-10T04:31:08;99618.06;;;14.88;100.00
59435;BME280;45241;49.768;8.636;2023-05-10T04:33:34;99626.50;;;14.68;100.00
59435;BME280;45241;49.768;8.636;2023-05-10T04:35:59;99634.22;;;14.53;100.00
59435;BME280;45241;49.768;8.636;2023-05-10T04:38:25;99633.63;;;14.51;100.00
59435;BME280;45241;49.768;8.636;2023-05-10T04:40:52;99630.81;;;14.58;100.00
59435;BME280;45241;49.768;8.636;2023-05-10T04:43:17;99628.59;;;14.66;100.00
59435;BME280;45241;49.768;8.636;2023-05-10T04:45:42;99631.91;;;14.68;100.00
59435;BME280;45241;49.768;8.636;2023-05-10T04:48:08;99643.53;;;14.81;100.00
59435;BME280;45241;49.768;8.636;2023-05-10T04:50:33;99639.41;;;14.90;100.00
59435;BME280;45241;49.768;8.636;2023-05-10T04:52:58;99638.59;;;14.78;100.00
59435;BME280;45241;49.768;8.636;2023-05-10T04:55:24;99635.88;;;14.66;100.00
59435;BME280;45241;49.768;8.636;2023-05-10T04:57:50;99647.72;;;14.88;100.00
59435;BME280;45241;49.768;8.636;2023-05-10T05:00:15;99639.84;;;14.63;100.00
59435;BME280;45241;49.768;8.636;2023-05-10T05:02:44;99654.31;;;14.92;100.00
59435;BME280;45241;49.768;8.636;2023-05-10T05:05:11;99652.91;;;14.78;100.00
59435;BME280;45241;49.768;8.636;2023-05-10T05:07:36;99668.50;;;14.64;100.00
59435;BME280;45241;49.768;8.636;2023-05-10T05:10:02;99665.09;;;14.69;100.00
59435;BME280;45241;49.768;8.636;2023-05-10T05:12:28;99672.34;;;14.68;100.00
59435;BME280;45241;49.768;8.636;2023-05-10T05:14:53;99676.03;;;14.44;100.00
59435;BME280;45241;49.768;8.636;2023-05-10T05:17:18;99671.28;;;14.58;100.00
59435;BME280;45241;49.768;8.636;2023-05-10T05:19:44;99671.03;;;14.59;100.00
59435;BME280;45241;49.768;8.636;2023-05-10T05:22:09;99680.09;;;14.65;100.00
59435;BME280;45241;49.768;8.636;2023-05-10T05:24:35;99673.06;;;14.76;100.00
59435;BME280;45241;49.768;8.636;2023-05-10T05:27:03;99674.13;;;14.75;100.00
59435;BME280;45241;49.768;8.636;2023-05-10T05:29:28;99678.34;;;14.71;100.00
59435;BME280;45241;49.768;8.636;2023-05-10T05:31:54;99673.31;;;14.86;100.00
59435;BME280;45241;49.768;8.636;2023-05-10T05:34:19;99673.47;;;14.91;100.00
59435;BME280;45241;49.768;8.636;2023-05-10T05:36:45;99667.56;;;14.82;100.00
59435;BME280;45241;49.768;8.636;2023-05-10T05:39:11;99669.91;;;15.02;100.00
59435;BME280;45241;49.768;8.636;2023-05-10T05:41:36;99673.31;;;14.86;100.00
59435;BME280;45241;49.768;8.636;2023-05-10T05:44:01;99675.13;;;15.04;100.00
59435;BME280;45241;49.768;8.636;2023-05-10T05:46:26;99666.88;;;15.22;100.00
59435;BME280;45241;49.768;8.636;2023-05-10T05:48:52;99673.94;;;15.58;100.00
59435;BME280;45241;49.768;8.636;2023-05-10T05:51:17;99687.91;;;15.20;100.00
59435;BME280;45241;49.768;8.636;2023-05-10T05:53:42;99681.94;;;15.18;100.00
59435;BME280;45241;49.768;8.636;2023-05-10T05:56:08;99685.69;;;15.17;100.00
59435;BME280;45241;49.768;8.636;2023-05-10T05:58:34;99688.50;;;15.34;100.00
59435;BME280;45241;49.768;8.636;2023-05-10T06:01:00;99681.56;;;15.26;100.00
59435;BME280;45241;49.768;8.636;2023-05-10T06:03:25;99676.50;;;15.41;100.00
59435;BME280;45241;49.768;8.636;2023-05-10T06:05:50;99689.41;;;15.16;100.00
59435;BME280;45241;49.768;8.636;2023-05-10T06:08:15;99692.34;;;15.38;100.00
59435;BME280;45241;49.768;8.636;2023-05-10T06:10:41;99692.81;;;15.46;100.00
59435;BME280;45241;49.768;8.636;2023-05-10T06:13:06;99704.69;;;15.10;100.00
59435;BME280;45241;49.768;8.636;2023-05-10T06:15:31;99702.47;;;15.31;100.00
59435;BME280;45241;49.768;8.636;2023-05-10T06:17:57;99708.94;;;15.30;100.00
59435;BME280;45241;49.768;8.636;2023-05-10T06:20:23;99708.06;;;15.41;100.00
59435;BME280;45241;49.768;8.636;2023-05-10T06:22:48;99709.72;;;15.42;100.00
59435;BME280;45241;49.768;8.636;2023-05-10T06:25:13;99707.66;;;15.55;100.00
59435;BME280;45241;49.768;8.636;2023-05-10T06:27:39;99705.16;;;15.66;100.00
59435;BME280;45241;49.768;8.636;2023-05-10T06:30:05;99702.69;;;15.64;100.00
59435;BME280;45241;49.768;8.636;2023-05-10T06:32:31;99699.75;;;15.77;100.00
59435;BME280;45241;49.768;8.636;2023-05-10T06:34:57;99703.16;;;15.49;100.00
59435;BME280;45241;49.768;8.636;2023-05-10T06:37:22;99702.22;;;15.44;100.00
59435;BME280;45241;49.768;8.636;2023-05-10T06:39:47;99707.66;;;15.55;100.00
59435;BME280;45241;49.768;8.636;2023-05-10T06:42:13;99701.75;;;15.82;100.00
59435;BME280;45241;49.768;8.636;2023-05-10T06:44:38;99710.91;;;15.46;100.00
59435;BME280;45241;49.768;8.636;2023-05-10T06:47:04;99705.28;;;15.59;100.00
59435;BME280;45241;49.768;8.636;2023-05-10T06:49:29;99700.88;;;15.93;100.00
59435;BME280;45241;49.768;8.636;2023-05-10T06:51:57;99700.44;;;15.84;100.00
59435;BME280;45241;49.768;8.636;2023-05-10T06:54:22;99712.59;;;16.10;100.00
59435;BME280;45241;49.768;8.636;2023-05-10T06:56:48;99709.59;;;15.83;100.00
59435;BME280;45241;49.768;8.636;2023-05-10T06:59:13;99706.09;;;15.83;100.00
59435;BME280;45241;49.768;8.636;2023-05-10T07:01:40;99714.28;;;15.88;100.00
59435;BME280;45241;49.768;8.636;2023-05-10T07:04:05;99715.19;;;15.94;100.00
59435;BME280;45241;49.768;8.636;2023-05-10T07:06:32;99710.88;;;15.81;100.00
59435;BME280;45241;49.768;8.636;2023-05-10T07:08:58;99722.31;;;15.83;100.00
59435;BME280;45241;49.768;8.636;2023-05-10T07:11:24;99729.69;;;15.88;100.00
59435;BME280;45241;49.768;8.636;2023-05-10T07:13:49;99723.03;;;16.07;100.00
59435;BME280;45241;49.768;8.636;2023-05-10T07:16:14;99724.41;;;15.81;100.00
59435;BME280;45241;49.768;8.636;2023-05-10T07:18:40;99732.22;;;16.06;100.00
59435;BME280;45241;49.768;8.636;2023-05-10T07:21:05;99723.75;;;16.14;100.00
59435;BME280;45241;49.768;8.636;2023-05-10T07:23:31;99725.06;;;16.00;100.00
59435;BME280;45241;49.768;8.636;2023-05-10T07:25:56;99727.28;;;16.03;100.00
59435;BME280;45241;49.768;8.636;2023-05-10T07:28:22;99723.69;;;15.85;100.00
59435;BME280;45241;49.768;8.636;2023-05-10T07:30:48;99725.91;;;15.89;100.00
59435;BME280;45241;49.768;8.636;2023-05-10T07:33:14;99728.28;;;15.97;100.00
59435;BME280;45241;49.768;8.636;2023-05-10T07:35:39;99728.94;;;16.04;100.00
59435;BME280;45241;49.768;8.636;2023-05-10T07:38:05;99732.94;;;16.41;100.00
59435;BME280;45241;49.768;8.636;2023-05-10T07:40:30;99738.09;;;16.43;100.00
59435;BME280;45241;49.768;8.636;2023-05-10T07:42:56;99735.00;;;16.23;100.00
59435;BME280;45241;49.768;8.636;2023-05-10T07:45:21;99738.13;;;16.31;100.00
59435;BME280;45241;49.768;8.636;2023-05-10T07:47:47;99736.09;;;16.10;100.00
59435;BME280;45241;49.768;8.636;2023-05-10T07:50:12;99740.97;;;16.36;100.00
59435;BME280;45241;49.768;8.636;2023-05-10T07:52:38;99737.97;;;16.21;100.00
59435;BME280;45241;49.768;8.636;2023-05-10T07:55:03;99741.34;;;16.28;100.00
59435;BME280;45241;49.768;8.636;2023-05-10T07:57:29;99737.88;;;16.04;100.00
59435;BME280;45241;49.768;8.636;2023-05-10T07:59:54;99748.38;;;15.77;100.00
59435;BME280;45241;49.768;8.636;2023-05-10T08:02:19;99746.97;;;15.63;100.00
59435;BME280;45241;49.768;8.636;2023-05-10T08:04:45;99747.09;;;15.68;100.00
59435;BME280;45241;49.768;8.636;2023-05-10T08:07:10;99749.16;;;16.01;100.00
59435;BME280;45241;49.768;8.636;2023-05-10T08:09:36;99746.97;;;15.87;100.00
59435;BME280;45241;49.768;8.636;2023-05-10T08:12:01;99749.50;;;16.05;100.00
59435;BME280;45241;49.768;8.636;2023-05-10T08:14:28;99752.69;;;16.02;100.00
59435;BME280;45241;49.768;8.636;2023-05-10T08:16:54;99747.50;;;16.12;100.00
59435;BME280;45241;49.768;8.636;2023-05-10T08:19:19;99746.81;;;16.05;100.00
59435;BME280;45241;49.768;8.636;2023-05-10T08:21:46;99748.09;;;16.02;100.00
59435;BME280;45241;49.768;8.636;2023-05-10T08:24:12;99749.94;;;16.54;100.00
59435;BME280;45241;49.768;8.636;2023-05-10T08:26:37;99752.56;;;16.08;100.00
59435;BME280;45241;49.768;8.636;2023-05-10T08:29:03;99751.56;;;16.26;100.00
59435;BME280;45241;49.768;8.636;2023-05-10T08:31:28;99757.47;;;16.52;100.00
59435;BME280;45241;49.768;8.636;2023-05-10T08:33:53;99757.97;;;16.49;100.00
59435;BME280;45241;49.768;8.636;2023-05-10T08:36:18;99751.75;;;16.48;100.00
59435;BME280;45241;49.768;8.636;2023-05-10T08:38:50;99753.41;;;16.66;100.00
59435;BME280;45241;49.768;8.636;2023-05-10T08:41:17;99754.72;;;16.75;100.00
59435;BME280;45241;49.768;8.636;2023-05-10T08:43:43;99751.78;;;16.93;100.00
59435;BME280;45241;49.768;8.636;2023-05-10T08:46:15;99747.03;;;17.34;100.00
59435;BME280;45241;49.768;8.636;2023-05-10T08:48:43;99758.75;;;17.23;100.00
59435;BME280;45241;49.768;8.636;2023-05-10T08:51:09;99756.78;;;17.01;100.00
59435;BME280;45241;49.768;8.636;2023-05-10T08:53:38;99749.91;;;17.44;100.00
59435;BME280;45241;49.768;8.636;2023-05-10T08:56:04;99763.41;;;17.61;100.00
59435;BME280;45241;49.768;8.636;2023-05-10T08:58:29;99749.38;;;17.47;100.00
59435;BME280;45241;49.768;8.636;2023-05-10T09:00:55;99759.75;;;17.17;100.00
59435;BME280;45241;49.768;8.636;2023-05-10T09:03:22;99755.63;;;16.97;100.00
59435;BME280;45241;49.768;8.636;2023-05-10T09:05:48;99758.00;;;17.11;100.00
59435;BME280;45241;49.768;8.636;2023-05-10T09:08:14;99762.19;;;17.35;100.00
59435;BME280;45241;49.768;8.636;2023-05-10T09:10:42;99759.63;;;17.62;100.00
59435;BME280;45241;49.768;8.636;2023-05-10T09:13:09;99765.66;;;17.30;100.00
59435;BME280;45241;49.768;8.636;2023-05-10T09:15:35;99762.13;;;17.30;100.00
59435;BME280;45241;49.768;8.636;2023-05-10T09:18:00;99766.56;;;17.53;100.00
59435;BME280;45241;49.768;8.636;2023-05-10T09:20:27;99763.03;;;17.52;100.00
59435;BME280;45241;49.768;8.636;2023-05-10T09:22:53;99767.59;;;17.85;100.00
59435;BME280;45241;49.768;8.636;2023-05-10T09:25:19;99769.06;;;17.93;100.00
59435;BME280;45241;49.768;8.636;2023-05-10T09:27:46;99770.00;;;17.82;100.00
59435;BME280;45241;49.768;8.636;2023-05-10T09:30:17;99761.22;;;17.58;100.00
59435;BME280;45241;49.768;8.636;2023-05-10T09:32:44;99764.81;;;17.47;100.00
59435;BME280;45241;49.768;8.636;2023-05-10T09:35:21;99780.25;;;17.46;100.00
59435;BME280;45241;49.768;8.636;2023-05-10T09:37:49;99777.66;;;17.18;100.00
59435;BME280;45241;49.768;8.636;2023-05-10T09:40:16;99766.25;;;17.16;100.00
59435;BME280;45241;49.768;8.636;2023-05-10T09:42:51;99787.16;;;17.37;100.00
59435;BME280;45241;49.768;8.636;2023-05-10T09:45:17;99780.91;;;17.70;100.00
59435;BME280;45241;49.768;8.636;2023-05-10T09:47:42;99779.25;;;17.69;100.00
59435;BME280;45241;49.768;8.636;2023-05-10T09:50:09;99785.31;;;17.76;96.82
59435;BME280;45241;49.768;8.636;2023-05-10T09:55:25;99784.78;;;18.35;98.32
59435;BME280;45241;49.768;8.636;2023-05-10T09:57:59;99780.53;;;17.78;92.99
59435;BME280;45241;49.768;8.636;2023-05-10T10:00:26;99787.44;;;18.08;88.43
59435;BME280;45241;49.768;8.636;2023-05-10T10:02:58;99784.69;;;17.69;86.89
59435;BME280;45241;49.768;8.636;2023-05-10T10:05:35;99794.41;;;17.65;88.94
59435;BME280;45241;49.768;8.636;2023-05-10T10:08:03;99790.94;;;17.70;90.24
59435;BME280;45241;49.768;8.636;2023-05-10T10:10:29;99790.66;;;17.88;92.33
59435;BME280;45241;49.768;8.636;2023-05-10T10:12:55;99805.75;;;17.79;89.60
59435;BME280;45241;49.768;8.636;2023-05-10T10:15:21;99794.25;;;17.38;80.49
59435;BME280;45241;49.768;8.636;2023-05-10T10:17:48;99794.91;;;17.79;84.94
59435;BME280;45241;49.768;8.636;2023-05-10T10:20:14;99794.81;;;18.34;87.30
59435;BME280;45241;49.768;8.636;2023-05-10T10:22:40;99790.84;;;18.20;82.04
59435;BME280;45241;49.768;8.636;2023-05-10T10:25:07;99787.38;;;18.25;81.73
59435;BME280;45241;49.768;8.636;2023-05-10T10:35:21;99794.53;;;17.92;77.34
59435;BME280;45241;49.768;8.636;2023-05-10T10:37:50;99792.09;;;18.12;81.13
59435;BME280;45241;49.768;8.636;2023-05-10T10:40:30;99804.72;;;17.85;78.90
59435;BME280;45241;49.768;8.636;2023-05-10T10:42:56;99806.88;;;17.66;80.40
59435;BME280;45241;49.768;8.636;2023-05-10T10:45:23;99806.34;;;18.03;82.58
59435;BME280;45241;49.768;8.636;2023-05-10T10:47:48;99804.72;;;18.24;83.06
59435;BME280;45241;49.768;8.636;2023-05-10T10:50:15;99794.31;;;17.77;85.25
59435;BME280;45241;49.768;8.636;2023-05-10T10:52:45;99799.72;;;17.77;86.66
59435;BME280;45241;49.768;8.636;2023-05-10T10:55:17;99798.56;;;17.89;87.69
59435;BME280;45241;49.768;8.636;2023-05-10T10:57:54;99799.47;;;17.95;87.78
59435;BME280;45241;49.768;8.636;2023-05-10T11:00:30;99802.69;;;17.92;87.33
59435;BME280;45241;49.768;8.636;2023-05-10T11:05:47;99813.63;;;18.19;87.02
59435;BME280;45241;49.768;8.636;2023-05-10T11:18:36;99806.91;;;18.27;84.78
59435;BME280;45241;49.768;8.636;2023-05-10T11:21:02;99806.94;;;18.05;78.92
59435;BME280;45241;49.768;8.636;2023-05-10T11:26:13;99809.59;;;19.19;79.49
59435;BME280;45241;49.768;8.636;2023-05-10T11:28:46;99804.59;;;19.38;74.91
59435;BME280;45241;49.768;8.636;2023-05-10T11:31:16;99806.84;;;18.87;79.47
59435;BME280;45241;49.768;8.636;2023-05-10T11:33:55;99811.53;;;18.70;76.88
59435;BME280;45241;49.768;8.636;2023-05-10T11:36:23;99813.44;;;18.47;79.15
59435;BME280;45241;49.768;8.636;2023-05-10T11:38:49;99803.44;;;18.75;76.87
59435;BME280;45241;49.768;8.636;2023-05-10T11:41:16;99821.81;;;18.90;75.48
59435;BME280;45241;49.768;8.636;2023-05-10T11:43:42;99822.09;;;18.93;75.16
59435;BME280;45241;49.768;8.636;2023-05-10T11:46:10;99816.06;;;19.13;76.89
59435;BME280;45241;49.768;8.636;2023-05-10T11:48:36;99822.72;;;19.27;74.97
59435;BME280;45241;49.768;8.636;2023-05-10T11:51:03;99824.91;;;18.55;72.71
59435;BME280;45241;49.768;8.636;2023-05-10T11:53:32;99816.66;;;18.44;73.42
59435;BME280;45241;49.768;8.636;2023-05-10T11:56:08;99822.78;;;18.35;74.72
59435;BME280;45241;49.768;8.636;2023-05-10T11:58:35;99831.44;;;18.32;74.54
59435;BME280;45241;49.768;8.636;2023-05-10T12:01:01;99833.34;;;18.14;76.22
59435;BME280;45241;49.768;8.636;2023-05-10T12:03:27;99832.56;;;18.36;79.14
59435;BME280;45241;49.768;8.636;2023-05-10T12:05:53;99831.06;;;18.45;78.83
59435;BME280;45241;49.768;8.636;2023-05-10T12:08:23;99834.94;;;18.98;79.83
59435;BME280;45241;49.768;8.636;2023-05-10T12:10:49;99833.03;;;19.25;76.67
59435;BME280;45241;49.768;8.636;2023-05-10T12:13:15;99834.63;;;18.94;75.44
59435;BME280;45241;49.768;8.636;2023-05-10T12:15:41;99830.91;;;18.78;78.16
59435;BME280;45241;49.768;8.636;2023-05-10T12:18:09;99822.94;;;18.94;76.25
59435;BME280;45241;49.768;8.636;2023-05-10T12:20:35;99832.47;;;19.55;76.09
59435;BME280;45241;49.768;8.636;2023-05-10T12:23:01;99820.97;;;19.16;73.57
59435;BME280;45241;49.768;8.636;2023-05-10T12:25:32;99820.97;;;19.16;72.39
59435;BME280;45241;49.768;8.636;2023-05-10T12:27:59;99816.06;;;19.13;74.01
59435;BME280;45241;49.768;8.636;2023-05-10T12:30:27;99828.69;;;19.24;72.23
59435;BME280;45241;49.768;8.636;2023-05-10T12:32:54;99825.56;;;19.43;71.69
59435;BME280;45241;49.768;8.636;2023-05-10T12:35:24;99835.34;;;19.12;71.24
59435;BME280;45241;49.768;8.636;2023-05-10T12:37:52;99826.09;;;19.40;70.11
59435;BME280;45241;49.768;8.636;2023-05-10T12:40:18;99831.84;;;19.16;69.66
59435;BME280;45241;49.768;8.636;2023-05-10T12:42:43;99837.91;;;18.96;67.46
59435;BME280;45241;49.768;8.636;2023-05-10T12:45:10;99839.03;;;19.00;70.14
59435;BME280;45241;49.768;8.636;2023-05-10T12:47:37;99841.38;;;18.92;71.15
59435;BME280;45241;49.768;8.636;2023-05-10T12:50:03;99834.72;;;19.04;73.83
59435;BME280;45241;49.768;8.636;2023-05-10T12:52:28;99833.59;;;19.00;76.16
59435;BME280;45241;49.768;8.636;2023-05-10T12:54:54;99831.81;;;18.84;74.26
59435;BME280;45241;49.768;8.636;2023-05-10T12:57:22;99833.72;;;18.67;72.11
59435;BME280;45241;49.768;8.636;2023-05-10T12:59:48;99832.91;;;18.66;75.71
59435;BME280;45241;49.768;8.636;2023-05-10T13:02:13;99835.66;;;18.88;77.29
59435;BME280;45241;49.768;8.636;2023-05-10T13:04:40;99843.94;;;19.03;75.66
59435;BME280;45241;49.768;8.636;2023-05-10T13:07:09;99838.50;;;19.30;74.08
59435;BME280;45241;49.768;8.636;2023-05-10T13:09:34;99840.09;;;19.58;74.02
59435;BME280;45241;49.768;8.636;2023-05-10T13:12:00;99838.72;;;19.24;75.52
59435;BME280;45241;49.768;8.636;2023-05-10T13:14:26;99843.66;;;19.00;75.20
59435;BME280;45241;49.768;8.636;2023-05-10T13:16:51;99836.47;;;18.89;72.69
59435;BME280;45241;49.768;8.636;2023-05-10T13:19:17;99850.56;;;19.40;72.39
59435;BME280;45241;49.768;8.636;2023-05-10T13:21:43;99842.22;;;19.83;70.10
59435;BME280;45241;49.768;8.636;2023-05-10T13:24:10;99842.31;;;20.46;69.22
59435;BME280;45241;49.768;8.636;2023-05-10T13:26:36;99840.25;;;20.16;69.27
59435;BME280;45241;49.768;8.636;2023-05-10T13:29:02;99850.81;;;19.38;69.30
59435;BME280;45241;49.768;8.636;2023-05-10T13:31:27;99843.44;;;19.06;68.58
59435;BME280;45241;49.768;8.636;2023-05-10T13:33:53;99849.06;;;19.27;65.46